KBAC

Barnes County Municipal Airport

Valley City, North Dakota, USA
METAR KBAC 220215Z AUTO 14007KT 10SM BKN035 18/14 A2995 RMK AO2
Observed Flight Rules
May-22 @ 02:15 UTC (22 minutes ago) Visual Flight Rules
Wind Visibility Clouds
140° at 7 knots 10 miles
  • Broken at 3,500' AGL
Temperatures Readings
Current 18°C / 64°F
Dewpoint 14°C / 57°F
Humidity 78%
Altimeter 29.95" Hg
Pressure 1014 hPa
Elevation 427
METAR KBAC 220215Z AUTO 14007KT 10SM BKN035 18/14 A2995 RMK AO2
Observed Flight Rules
May-22 @ 02:15 UTC
(22 minutes ago)
VFR
Wind Visibility
140° at 7 knots 10 miles
Clouds
  • Broken at 3,500' AGL
Temperature Dewpoint
18°C / 64°F 14°C / 57°F
Humidity Altimeter Pressure
78% 29.95" Hg 1014 hPa